createdAt,value
2018-08-17T00:01:21.691Z,4.53
2018-08-17T00:04:06.739Z,4.67
2018-08-17T00:06:47.127Z,4.57
2018-08-17T00:09:19.923Z,4.80
2018-08-17T00:11:57.559Z,4.50
2018-08-17T00:14:28.319Z,4.50
2018-08-17T00:17:01.508Z,4.50
2018-08-17T00:19:35.500Z,3.60
2018-08-17T00:22:07.116Z,4.37
2018-08-17T00:24:36.912Z,4.50
2018-08-17T00:27:06.724Z,4.40
2018-08-17T00:29:37.656Z,3.50
2018-08-17T00:32:13.232Z,3.80
2018-08-17T00:34:45.077Z,4.40
2018-08-17T00:37:15.919Z,4.70
2018-08-17T00:39:50.744Z,4.00
2018-08-17T00:42:26.388Z,4.00
2018-08-17T00:44:57.003Z,4.00
2018-08-17T00:47:26.820Z,3.80
2018-08-17T00:50:00.776Z,4.30
2018-08-17T00:52:39.068Z,4.30
2018-08-17T00:55:20.060Z,3.93
2018-08-17T00:57:49.976Z,4.83
2018-08-17T01:00:33.208Z,3.73
2018-08-17T01:03:04.088Z,4.47
2018-08-17T01:05:37.196Z,4.60
2018-08-17T01:08:08.080Z,5.03
2018-08-17T01:10:38.659Z,4.93
2018-08-17T01:13:13.940Z,4.13
2018-08-17T01:15:43.792Z,4.70
2018-08-17T01:18:18.533Z,3.97
2018-08-17T01:20:54.324Z,4.13
2018-08-17T01:23:28.675Z,4.40
2018-08-17T01:25:59.231Z,4.40
2018-08-17T01:28:29.016Z,4.83
2018-08-17T01:31:05.767Z,4.90
2018-08-17T01:33:41.820Z,4.53
2018-08-17T01:36:21.463Z,4.70
2018-08-17T01:38:59.462Z,4.50
2018-08-17T01:41:34.972Z,4.67
2018-08-17T01:44:07.907Z,4.70
2018-08-17T01:46:38.827Z,4.30
2018-08-17T01:49:11.955Z,4.67
2018-08-17T01:51:42.499Z,5.40
2018-08-17T01:54:15.591Z,4.00
2018-08-17T01:56:49.525Z,5.00
2018-08-17T01:59:37.579Z,4.40
2018-08-17T02:02:11.443Z,4.57
2018-08-17T02:04:43.095Z,4.50
2018-08-17T02:07:26.899Z,4.53
2018-08-17T02:10:03.687Z,4.20
2018-08-17T02:12:39.119Z,4.70
2018-08-17T02:15:10.012Z,4.43
2018-08-17T02:17:40.652Z,4.50
2018-08-17T02:20:11.791Z,4.50
2018-08-17T02:22:41.483Z,4.83
2018-08-17T02:25:12.075Z,4.40
2018-08-17T02:27:42.834Z,4.80
2018-08-17T02:30:18.279Z,5.10
2018-08-17T02:32:47.951Z,4.50
2018-08-17T02:35:21.411Z,4.80
2018-08-17T02:37:51.135Z,4.97
2018-08-17T02:40:26.088Z,5.00
2018-08-17T02:43:01.347Z,4.73
2018-08-17T02:45:33.230Z,5.27
2018-08-17T02:48:07.827Z,5.57
2018-08-17T02:50:38.703Z,4.93
2018-08-17T02:53:08.495Z,5.43
2018-08-17T02:55:41.279Z,5.10
2018-08-17T02:58:11.127Z,5.03
2018-08-17T03:00:42.735Z,5.70
2018-08-17T03:03:23.150Z,6.13
2018-08-17T03:05:53.046Z,5.60
2018-08-17T03:08:23.855Z,5.50
2018-08-17T03:10:59.215Z,5.20
2018-08-17T03:13:35.907Z,5.57
2018-08-17T03:16:10.730Z,5.10
2018-08-17T03:18:44.486Z,5.10
2018-08-17T03:21:33.935Z,6.23
2018-08-17T03:24:15.236Z,5.87
2018-08-17T03:27:03.872Z,5.33
2018-08-17T03:29:37.379Z,6.20
2018-08-17T03:32:19.127Z,5.20
2018-08-17T03:34:52.371Z,6.47
2018-08-17T03:37:23.926Z,6.10
2018-08-17T03:39:53.675Z,6.07
2018-08-17T03:42:28.791Z,5.37
2018-08-17T03:45:02.564Z,6.33
2018-08-17T03:47:33.103Z,6.97
2018-08-17T03:50:02.632Z,6.10
2018-08-17T03:52:37.989Z,6.80
2018-08-17T03:55:09.727Z,7.20
2018-08-17T03:57:39.331Z,7.63
2018-08-17T04:00:15.786Z,7.90
2018-08-17T04:02:46.327Z,8.10
2018-08-17T04:05:16.843Z,8.63
2018-08-17T04:07:51.267Z,8.10
2018-08-17T04:10:23.963Z,9.00
2018-08-17T04:12:55.835Z,8.80
2018-08-17T04:15:25.782Z,8.27
2018-08-17T04:17:57.611Z,7.70
2018-08-17T04:20:27.567Z,7.13
2018-08-17T04:23:00.856Z,7.40
2018-08-17T04:25:33.023Z,7.67
2018-08-17T04:28:10.107Z,7.70
2018-08-17T04:30:39.799Z,7.60
2018-08-17T04:33:11.536Z,6.60
2018-08-17T04:35:42.020Z,7.57
2018-08-17T04:38:12.551Z,7.47
2018-08-17T04:40:43.203Z,7.00
2018-08-17T04:43:13.019Z,6.50
2018-08-17T04:45:47.459Z,7.47
2018-08-17T04:48:20.603Z,8.17
2018-08-17T04:50:50.511Z,6.97
2018-08-17T04:53:27.163Z,7.50
2018-08-17T04:55:58.967Z,7.17
2018-08-17T04:58:38.859Z,6.40
2018-08-17T05:01:08.799Z,6.77
2018-08-17T05:03:38.303Z,6.43
2018-08-17T05:06:09.062Z,6.80
2018-08-17T05:08:38.675Z,6.10
2018-08-17T05:11:08.491Z,5.93
2018-08-17T05:13:44.494Z,5.83
2018-08-17T05:16:17.723Z,6.40
2018-08-17T05:18:50.738Z,5.90
2018-08-17T05:21:37.549Z,6.53
2018-08-17T05:24:13.543Z,5.93
2018-08-17T05:26:53.859Z,6.13
2018-08-17T05:29:23.436Z,5.37
2018-08-17T05:31:53.155Z,6.33
2018-08-17T05:34:22.755Z,5.80
2018-08-17T05:36:52.591Z,6.00
2018-08-17T05:39:22.499Z,5.03
2018-08-17T05:41:52.295Z,5.40
2018-08-17T05:44:22.111Z,5.20
2018-08-17T05:46:55.599Z,5.60
2018-08-17T05:49:32.031Z,4.97
2018-08-17T05:52:02.691Z,5.60
2018-08-17T05:54:39.667Z,4.80
2018-08-17T05:57:09.379Z,5.70
2018-08-17T05:59:40.023Z,6.00
2018-08-17T06:02:10.743Z,4.50
2018-08-17T06:04:54.448Z,4.00
2018-08-17T06:07:34.815Z,4.60
2018-08-17T06:10:05.948Z,3.40
2018-08-17T06:12:35.815Z,3.63
2018-08-17T06:15:09.255Z,3.40
2018-08-17T06:17:40.835Z,3.97
2018-08-17T06:20:11.607Z,3.80
2018-08-17T06:22:42.587Z,3.57
2018-08-17T06:25:23.331Z,3.97
2018-08-17T06:27:54.963Z,4.63
2018-08-17T06:30:24.664Z,3.43
2018-08-17T06:32:54.475Z,2.77
2018-08-17T06:35:25.335Z,2.53
2018-08-17T06:37:55.194Z,2.90
2018-08-17T06:40:28.090Z,3.17
2018-08-17T06:43:10.630Z,2.53
2018-08-17T06:45:40.418Z,2.70
2018-08-17T06:48:15.687Z,2.73
2018-08-17T06:50:53.175Z,2.83
2018-08-17T06:53:26.846Z,2.90
2018-08-17T06:56:04.370Z,3.03
2018-08-17T06:58:37.866Z,2.70
2018-08-17T07:01:08.690Z,2.80
2018-08-17T07:03:38.264Z,2.70
2018-08-17T07:06:12.667Z,3.00
2018-08-17T07:09:07.590Z,2.53
2018-08-17T07:11:57.567Z,3.00
2018-08-17T07:14:29.342Z,2.80
2018-08-17T07:16:59.206Z,2.90
2018-08-17T07:19:37.270Z,2.73
2018-08-17T07:22:13.578Z,3.10
2018-08-17T07:24:53.591Z,2.67
2018-08-17T07:27:31.210Z,2.60
2018-08-17T07:30:01.080Z,2.93
2018-08-17T07:32:36.882Z,2.67
2018-08-17T07:35:10.554Z,3.00
2018-08-17T07:37:45.529Z,2.27
2018-08-17T07:40:15.370Z,3.43
2018-08-17T07:43:09.755Z,2.07
2018-08-17T07:45:41.667Z,2.60
2018-08-17T07:48:11.755Z,2.50
2018-08-17T07:50:42.370Z,1.70
2018-08-17T07:53:16.502Z,2.23
2018-08-17T07:55:47.225Z,2.03
2018-08-17T07:58:19.107Z,2.40
2018-08-17T08:03:52.866Z,2.17
2018-08-17T08:06:35.679Z,1.80
2018-08-17T08:09:09.819Z,2.20
2018-08-17T08:11:50.802Z,2.00
2018-08-17T08:14:27.746Z,2.30
2018-08-17T08:17:02.010Z,1.80
2018-08-17T08:19:31.819Z,2.10
2018-08-17T08:22:13.319Z,1.80
2018-08-17T08:24:59.431Z,1.80
2018-08-17T08:27:29.294Z,2.33
2018-08-17T08:30:09.118Z,1.40
2018-08-17T08:32:38.655Z,1.90
2018-08-17T08:35:13.195Z,1.70
2018-08-17T08:37:43.379Z,1.60
2018-08-17T08:40:13.237Z,1.90
2018-08-17T08:42:56.795Z,1.70
2018-08-17T08:45:32.412Z,1.80
2018-08-17T08:48:02.117Z,1.73
2018-08-17T08:50:37.882Z,1.90
2018-08-17T08:53:11.555Z,1.80
2018-08-17T08:55:44.754Z,2.07
2018-08-17T08:58:35.118Z,1.80
2018-08-17T09:01:35.985Z,2.00
2018-08-17T09:04:12.730Z,1.40
2018-08-17T09:07:00.045Z,1.50
2018-08-17T09:09:29.979Z,1.60
2018-08-17T09:12:05.742Z,1.77
2018-08-17T09:14:37.290Z,1.80
2018-08-17T09:17:27.974Z,1.70
2018-08-17T09:20:01.699Z,2.00
2018-08-17T09:22:37.250Z,1.30
2018-08-17T09:28:07.366Z,1.50
2018-08-17T09:30:37.194Z,1.60
2018-08-17T09:33:20.898Z,2.00
2018-08-17T09:35:51.525Z,1.50
2018-08-17T09:38:21.986Z,1.60
2018-08-17T09:40:52.534Z,1.63
2018-08-17T09:43:36.895Z,1.47
2018-08-17T09:46:14.002Z,1.40
2018-08-17T09:48:43.870Z,1.40
2018-08-17T09:51:13.724Z,1.27
2018-08-17T09:53:54.787Z,1.47
2018-08-17T09:56:37.166Z,1.70
2018-08-17T09:59:12.230Z,1.60
2018-08-17T10:05:11.987Z,1.57
2018-08-17T10:07:47.065Z,1.60
2018-08-17T10:10:29.939Z,1.40
2018-08-17T10:12:59.807Z,1.77
2018-08-17T10:15:40.227Z,1.40
2018-08-17T10:18:11.142Z,1.33
2018-08-17T10:20:49.209Z,1.60
2018-08-17T10:23:29.510Z,1.50
2018-08-17T10:25:59.375Z,1.33
2018-08-17T10:28:36.399Z,1.67
2018-08-17T10:31:16.994Z,2.83
2018-08-17T10:33:52.201Z,1.47
2018-08-17T10:36:35.671Z,1.60
2018-08-17T10:39:25.843Z,1.50
2018-08-17T10:42:19.619Z,1.70
2018-08-17T10:44:50.208Z,1.67
2018-08-17T10:47:37.130Z,1.43
2018-08-17T10:50:15.445Z,1.63
2018-08-17T10:53:04.126Z,1.30
2018-08-17T10:55:48.422Z,1.57
2018-08-17T10:58:40.610Z,1.67
2018-08-17T11:01:22.362Z,1.70
2018-08-17T11:04:13.426Z,1.20
2018-08-17T11:06:50.370Z,1.33
2018-08-17T11:09:20.266Z,1.37
2018-08-17T11:12:01.239Z,1.40
2018-08-17T11:14:37.707Z,1.33
2018-08-17T11:17:08.689Z,1.47
2018-08-17T11:19:40.198Z,1.40
2018-08-17T11:22:09.990Z,1.70
2018-08-17T11:24:39.866Z,1.93
2018-08-17T11:42:45.894Z,1.30
2018-08-17T11:45:23.434Z,1.60
2018-08-17T11:47:56.042Z,1.67
2018-08-17T11:50:36.886Z,1.40
2018-08-17T11:53:06.726Z,0.97
2018-08-17T11:55:36.566Z,1.40
2018-08-17T11:58:09.958Z,1.63
2018-08-17T12:00:39.774Z,1.30
2018-08-17T12:03:10.526Z,1.50
2018-08-17T12:05:40.321Z,1.60
2018-08-17T12:08:22.551Z,1.40
2018-08-17T12:11:06.330Z,1.43
2018-08-17T12:13:41.626Z,1.50
2018-08-17T12:16:31.006Z,1.40
2018-08-17T12:19:06.922Z,1.30
2018-08-17T12:21:37.766Z,1.87
2018-08-17T12:24:09.608Z,1.60
2018-08-17T12:26:48.010Z,1.30
2018-08-17T12:29:17.834Z,1.70
2018-08-17T12:31:51.109Z,1.40
2018-08-17T12:34:23.390Z,1.70
2018-08-17T12:36:54.222Z,1.80
2018-08-17T12:39:24.058Z,2.17
2018-08-17T12:41:57.766Z,1.37
2018-08-17T12:44:35.982Z,1.13
2018-08-17T12:47:09.643Z,1.57
2018-08-17T12:49:46.954Z,1.90
2018-08-17T12:52:18.584Z,1.77
2018-08-17T12:54:49.358Z,1.23
2018-08-17T12:57:20.199Z,1.40
2018-08-17T12:59:55.788Z,1.50
2018-08-17T13:02:25.293Z,1.33
2018-08-17T13:05:03.194Z,1.20
2018-08-17T13:07:35.066Z,1.53
2018-08-17T13:10:05.042Z,1.50
2018-08-17T13:12:34.958Z,1.53
2018-08-17T13:15:09.354Z,1.30
2018-08-17T13:17:44.542Z,1.50
2018-08-17T13:20:35.230Z,1.40
2018-08-17T13:23:08.971Z,1.20
2018-08-17T13:25:42.796Z,1.33
2018-08-17T13:28:32.722Z,1.23
2018-08-17T13:31:02.574Z,1.57
2018-08-17T13:33:45.930Z,1.57
2018-08-17T13:36:35.242Z,1.53
2018-08-17T13:39:23.962Z,1.93
2018-08-17T13:42:07.035Z,1.50
2018-08-17T13:44:42.294Z,1.40
2018-08-17T13:47:16.092Z,1.80
2018-08-17T13:49:49.370Z,1.53
2018-08-17T13:52:22.527Z,1.40
2018-08-17T13:55:04.814Z,1.50
2018-08-17T13:57:45.470Z,1.40
2018-08-17T14:00:15.323Z,1.30
2018-08-17T14:02:47.102Z,1.50
2018-08-17T14:05:16.902Z,1.30
2018-08-17T14:11:05.726Z,1.70
2018-08-17T14:13:45.047Z,1.20
2018-08-17T14:16:16.882Z,1.30
2018-08-17T14:18:50.058Z,1.70
2018-08-17T14:21:24.390Z,1.20
2018-08-17T14:26:54.718Z,1.70
2018-08-17T14:29:24.466Z,1.10
2018-08-17T14:31:55.058Z,1.50
2018-08-17T14:34:25.921Z,1.20
2018-08-17T14:37:13.674Z,1.00
2018-08-17T14:39:44.261Z,1.50
2018-08-17T14:42:18.362Z,1.20
2018-08-17T14:47:48.441Z,1.40
2018-08-17T14:50:23.173Z,1.50
2018-08-17T14:52:52.952Z,1.30
2018-08-17T14:55:22.514Z,1.40
2018-08-17T14:57:54.202Z,1.60
2018-08-17T15:00:36.342Z,1.30
2018-08-17T15:03:15.817Z,1.37
2018-08-17T15:05:49.146Z,1.57
2018-08-17T15:08:19.981Z,1.30
2018-08-17T15:10:54.105Z,1.60
2018-08-17T15:13:29.964Z,1.80
2018-08-17T15:16:12.917Z,1.37
2018-08-17T15:18:45.752Z,1.50
2018-08-17T15:21:21.108Z,1.63
2018-08-17T15:23:51.822Z,1.53
2018-08-17T15:26:25.588Z,1.93
2018-08-17T15:28:57.214Z,1.77
2018-08-17T15:31:27.901Z,1.40
2018-08-17T15:34:01.641Z,1.50
2018-08-17T15:36:31.431Z,1.17
2018-08-17T15:39:01.245Z,1.47
2018-08-17T15:41:43.903Z,1.40
2018-08-17T15:44:25.426Z,1.73
2018-08-17T15:46:58.977Z,1.40
2018-08-17T15:49:34.809Z,1.47
2018-08-17T15:52:16.418Z,1.30
2018-08-17T15:54:46.185Z,1.90
2018-08-17T15:57:25.932Z,4.33
2018-08-17T15:59:56.441Z,1.40
2018-08-17T16:02:29.361Z,2.23
2018-08-17T16:05:16.609Z,1.80
2018-08-17T16:07:54.119Z,1.57
2018-08-17T16:10:24.925Z,1.83
2018-08-17T16:12:55.757Z,1.70
2018-08-17T16:15:31.281Z,1.80
2018-08-17T16:18:02.109Z,2.33
2018-08-17T16:20:35.032Z,1.70
2018-08-17T16:23:05.865Z,2.10
2018-08-17T16:25:35.629Z,1.90
2018-08-17T16:28:06.468Z,2.53
2018-08-17T16:30:36.006Z,2.13
2018-08-17T16:33:19.013Z,3.07
2018-08-17T16:35:53.944Z,2.20
2018-08-17T16:38:24.725Z,2.20
2018-08-17T16:41:06.357Z,2.50
2018-08-17T16:43:43.278Z,2.53
2018-08-17T16:46:13.453Z,2.43
2018-08-17T16:48:49.867Z,2.47
2018-08-17T16:51:20.649Z,2.50
2018-08-17T16:53:51.197Z,2.40
2018-08-17T16:56:24.274Z,2.00
2018-08-17T16:58:57.027Z,17.27
2018-08-17T17:01:27.809Z,5.77
2018-08-17T17:03:58.718Z,24.63
2018-08-17T17:06:32.662Z,21.20
2018-08-17T17:09:06.222Z,4.33
2018-08-17T17:11:36.757Z,3.07
2018-08-17T17:14:09.655Z,2.97
2018-08-17T17:16:44.600Z,2.40
2018-08-17T17:19:17.934Z,2.23
2018-08-17T17:21:48.805Z,2.67
2018-08-17T17:24:24.461Z,2.20
2018-08-17T17:27:00.248Z,2.87
2018-08-17T17:29:37.485Z,4.20
2018-08-17T17:32:36.349Z,3.43
2018-08-17T17:35:06.397Z,3.10
2018-08-17T17:37:36.025Z,2.87
2018-08-17T17:40:06.053Z,2.13
2018-08-17T17:42:36.772Z,2.73
2018-08-17T17:45:06.848Z,2.70
2018-08-17T17:47:46.813Z,2.37
2018-08-17T17:50:35.575Z,2.60
2018-08-17T17:53:12.181Z,2.90
2018-08-17T17:55:55.668Z,2.80
2018-08-17T17:58:28.481Z,3.00
2018-08-17T18:01:10.864Z,3.63
2018-08-17T18:03:50.293Z,3.27
2018-08-17T18:06:20.025Z,3.50
2018-08-17T18:08:52.717Z,2.97
2018-08-17T18:11:23.424Z,2.87
2018-08-17T18:13:55.189Z,3.20
2018-08-17T18:16:32.829Z,4.13
2018-08-17T18:19:04.461Z,3.80
2018-08-17T18:21:58.197Z,3.30
2018-08-17T18:24:29.981Z,3.50
2018-08-17T18:26:59.793Z,3.40
2018-08-17T18:29:50.633Z,3.30
2018-08-17T18:32:25.037Z,3.80
2018-08-17T18:35:02.920Z,3.37
2018-08-17T18:37:32.669Z,3.37
2018-08-17T18:40:12.793Z,3.30
2018-08-17T18:42:42.633Z,3.77
2018-08-17T18:45:13.473Z,3.53
2018-08-17T18:48:04.325Z,4.10
2018-08-17T18:50:36.133Z,3.57
2018-08-17T18:53:25.956Z,3.83
2018-08-17T18:56:19.833Z,4.20
2018-08-17T18:58:49.685Z,3.50
2018-08-17T19:01:41.569Z,4.50
2018-08-17T19:04:18.409Z,2.50
2018-08-17T19:06:56.358Z,3.67
2018-08-17T19:09:30.981Z,3.30
2018-08-17T19:12:02.634Z,3.27
2018-08-17T19:14:33.405Z,3.20
2018-08-17T19:17:23.361Z,3.30
2018-08-17T19:19:53.905Z,3.10
2018-08-17T19:22:36.005Z,2.70
2018-08-17T19:25:07.589Z,2.87
2018-08-17T19:27:39.057Z,3.47
2018-08-17T19:30:24.101Z,2.73
2018-08-17T19:32:55.021Z,2.53
2018-08-17T19:35:25.801Z,3.20
2018-08-17T19:38:05.261Z,3.80
2018-08-17T19:40:41.218Z,3.50
2018-08-17T19:43:17.971Z,3.47
2018-08-17T19:45:47.926Z,2.80
2018-08-17T19:48:19.702Z,3.30
2018-08-17T19:50:51.670Z,2.80
2018-08-17T19:53:26.337Z,3.20
2018-08-17T19:56:03.529Z,3.40
2018-08-17T19:58:34.537Z,2.60
2018-08-17T20:01:18.633Z,2.73
2018-08-17T20:03:48.497Z,3.10
2018-08-17T20:06:19.085Z,2.93
2018-08-17T20:08:54.461Z,3.50
2018-08-17T20:11:35.921Z,3.00
2018-08-17T20:14:06.877Z,3.17
2018-08-17T20:16:42.797Z,3.97
2018-08-17T20:19:15.552Z,3.43
2018-08-17T20:21:46.257Z,3.73
2018-08-17T20:24:20.025Z,3.00
2018-08-17T20:26:53.279Z,4.17
2018-08-17T20:29:23.053Z,4.27
2018-08-17T20:31:57.905Z,3.27
2018-08-17T20:34:32.878Z,3.17
2018-08-17T20:37:32.369Z,3.10
2018-08-17T20:40:14.489Z,3.57
2018-08-17T20:42:50.813Z,3.63
2018-08-17T20:45:25.289Z,3.27
2018-08-17T20:47:58.205Z,3.20
2018-08-17T20:50:28.708Z,3.83
2018-08-17T20:53:01.552Z,4.10
2018-08-17T20:55:36.733Z,3.73
2018-08-17T20:58:21.246Z,3.50
2018-08-17T21:00:53.089Z,3.90
2018-08-17T21:03:27.381Z,4.10
2018-08-17T21:06:02.600Z,4.63
2018-08-17T21:08:33.384Z,4.40
2018-08-17T21:11:07.244Z,4.57
2018-08-17T21:13:38.905Z,3.97
2018-08-17T21:16:08.785Z,3.90
2018-08-17T21:18:38.641Z,4.07
2018-08-17T21:21:09.492Z,4.10
2018-08-17T21:23:41.316Z,4.17
2018-08-17T21:26:11.201Z,3.57
2018-08-17T21:28:41.069Z,4.13
2018-08-17T21:31:10.869Z,4.17
2018-08-17T21:34:05.673Z,3.70
2018-08-17T21:36:35.264Z,3.60
2018-08-17T21:39:12.844Z,3.27
2018-08-17T21:41:47.205Z,3.67
2018-08-17T21:44:19.234Z,3.73
2018-08-17T21:46:55.140Z,3.27
2018-08-17T21:49:26.896Z,3.43
2018-08-17T21:52:00.400Z,3.77
2018-08-17T21:54:31.505Z,4.00
2018-08-17T21:57:03.132Z,4.03
2018-08-17T21:59:39.124Z,3.77
2018-08-17T22:02:11.373Z,3.40
2018-08-17T22:04:42.108Z,4.40
2018-08-17T22:07:16.224Z,5.37
2018-08-17T22:09:47.859Z,4.80
2018-08-17T22:12:21.584Z,5.90
2018-08-17T22:14:53.123Z,5.50
2018-08-17T22:17:35.100Z,4.37
2018-08-17T22:20:17.888Z,4.80
2018-08-17T22:22:47.591Z,4.60
2018-08-17T22:25:18.083Z,3.90
2018-08-17T22:27:48.600Z,4.27
2018-08-17T22:30:22.904Z,3.63
2018-08-17T22:32:52.804Z,4.80
2018-08-17T22:35:23.464Z,4.20
2018-08-17T22:37:54.156Z,4.60
2018-08-17T22:40:24.728Z,4.50
2018-08-17T22:42:59.500Z,4.20
2018-08-17T22:45:34.604Z,4.70
2018-08-17T22:48:04.132Z,4.20
2018-08-17T22:50:34.896Z,4.57
2018-08-17T22:53:06.532Z,4.73
2018-08-17T22:55:37.026Z,5.07
2018-08-17T22:58:07.764Z,4.83
2018-08-17T23:00:37.360Z,4.60
2018-08-17T23:03:13.061Z,4.90
2018-08-17T23:05:43.416Z,5.60
2018-08-17T23:08:14.324Z,5.50
2018-08-17T23:10:49.400Z,4.77
2018-08-17T23:13:23.573Z,4.97
2018-08-17T23:16:04.612Z,4.57
2018-08-17T23:18:34.529Z,4.73
2018-08-17T23:21:15.632Z,5.27
2018-08-17T23:23:54.928Z,4.97
2018-08-17T23:26:34.504Z,4.73
2018-08-17T23:29:08.168Z,4.90
2018-08-17T23:31:39.721Z,4.90
2018-08-17T23:34:11.540Z,5.97
2018-08-17T23:36:42.120Z,5.10
2018-08-17T23:39:17.040Z,5.40
2018-08-17T23:41:51.786Z,5.30
2018-08-17T23:44:23.452Z,5.30
2018-08-17T23:46:58.284Z,5.80
2018-08-17T23:49:29.948Z,6.57
2018-08-17T23:52:01.509Z,4.80
2018-08-17T23:54:33.507Z,5.30
2018-08-17T23:57:04.384Z,5.70
2018-08-17T23:59:34.264Z,5.20
